Time;durP1;ratioP1;P1;durP2;ratioP2;P2;SDS_P1;SDS_P2;PMS_P1;PMS_P2;Temp;Humidity;BMP_temperature;BMP_pressure;BME280_temperature;BME280_humidity;BME280_pressure;Samples;Min_cycle;Max_cycle;Signal;HPM_P1;HPM_P2
2022/10/14 00:00:20;;;;;;;8.75;5.60;;;;;;;;;;4965580;28;20042;-68
2022/10/14 00:02:46;;;;;;;8.38;6.10;;;;;;;;;;4972593;28;20377;-69
2022/10/14 00:05:12;;;;;;;7.65;5.10;;;;;;;;;;4972361;28;20042;-68
2022/10/14 00:07:38;;;;;;;8.73;5.47;;;;;;;;;;4957641;28;20047;-69
2022/10/14 00:10:05;;;;;;;7.85;5.43;;;;;;;;;;4953165;29;20043;-68
2022/10/14 00:12:32;;;;;;;9.57;6.30;;;;;;;;;;4953090;28;20031;-68
2022/10/14 00:14:58;;;;;;;8.73;5.68;;;;;;;;;;4962257;28;20122;-67
2022/10/14 00:17:24;;;;;;;7.03;5.50;;;;;;;;;;4971600;28;20170;-69
2022/10/14 00:19:51;;;;;;;9.68;6.45;;;;;;;;;;4972966;28;20428;-68
2022/10/14 00:22:17;;;;;;;10.90;7.20;;;;;;;;;;4973318;28;20031;-68
2022/10/14 00:24:43;;;;;;;14.40;6.95;;;;;;;;;;4973082;28;20113;-69
2022/10/14 00:27:09;;;;;;;10.20;6.93;;;;;;;;;;4973763;28;20030;-68
2022/10/14 00:29:35;;;;;;;11.98;8.07;;;;;;;;;;4973723;28;20047;-68
2022/10/14 00:32:01;;;;;;;9.43;7.60;;;;;;;;;;4972160;28;20030;-68
2022/10/14 00:34:26;;;;;;;11.23;7.65;;;;;;;;;;4973437;28;20085;-68
2022/10/14 00:36:54;;;;;;;14.13;7.80;;;;;;;;;;4973376;28;20102;-69
2022/10/14 00:39:20;;;;;;;10.10;7.30;;;;;;;;;;4973584;28;20130;-69
2022/10/14 00:41:46;;;;;;;13.18;7.30;;;;;;;;;;4974381;28;20500;-69
2022/10/14 00:44:12;;;;;;;9.40;6.60;;;;;;;;;;4976985;28;20029;-68
2022/10/14 00:46:40;;;;;;;9.95;6.80;;;;;;;;;;4976834;28;20066;-70
2022/10/14 00:49:14;;;;;;;12.60;6.20;;;;;;;;;;4975740;28;20085;-69
2022/10/14 00:51:44;;;;;;;6.95;5.47;;;;;;;;;;4976869;28;20081;-69
2022/10/14 00:54:13;;;;;;;10.48;5.55;;;;;;;;;;4976733;28;20469;-69
2022/10/14 00:56:40;;;;;;;7.68;5.55;;;;;;;;;;4975224;28;20398;-68
2022/10/14 00:59:09;;;;;;;9.30;4.30;;;;;;;;;;4976412;28;20050;-69
2022/10/14 01:01:36;;;;;;;5.93;4.40;;;;;;;;;;4974944;28;20043;-68
2022/10/14 01:04:02;;;;;;;9.80;5.43;;;;;;;;;;4975405;28;20035;-68
2022/10/14 01:06:34;;;;;;;9.73;5.47;;;;;;;;;;4976429;28;20034;-68
2022/10/14 01:09:08;;;;;;;8.80;4.88;;;;;;;;;;4974710;28;20062;-67
2022/10/14 01:12:13;;;;;;;7.55;4.97;;;;;;;;;;4973812;28;20084;-68
2022/10/14 01:15:15;;;;;;;6.57;5.20;;;;;;;;;;4993480;28;20427;-66
2022/10/14 01:18:03;;;;;;;8.15;4.97;;;;;;;;;;4961649;28;20051;-68
2022/10/14 01:20:47;;;;;;;6.60;4.57;;;;;;;;;;4954557;29;20042;-68
2022/10/14 01:23:38;;;;;;;6.38;4.97;;;;;;;;;;4955615;28;20106;-69
2022/10/14 01:26:39;;;;;;;8.32;5.43;;;;;;;;;;4955279;28;20486;-67
2022/10/14 01:29:26;;;;;;;8.00;4.18;;;;;;;;;;4955530;28;20040;-67
2022/10/14 01:32:01;;;;;;;7.55;4.90;;;;;;;;;;4955539;28;20035;-69
2022/10/14 01:34:36;;;;;;;5.57;4.10;;;;;;;;;;4963131;28;20035;-67
2022/10/14 01:37:08;;;;;;;5.82;3.85;;;;;;;;;;4962956;28;20030;-67
2022/10/14 01:39:43;;;;;;;6.95;4.18;;;;;;;;;;4954343;28;20039;-68
2022/10/14 01:42:14;;;;;;;11.30;4.45;;;;;;;;;;4966344;28;20060;-68
2022/10/14 01:44:45;;;;;;;8.57;4.25;;;;;;;;;;4973028;28;20508;-67
2022/10/14 01:47:14;;;;;;;8.68;4.68;;;;;;;;;;4962018;28;20678;-67
2022/10/14 01:49:44;;;;;;;7.03;4.80;;;;;;;;;;4959143;28;20041;-68
2022/10/14 01:52:21;;;;;;;7.25;5.05;;;;;;;;;;4973238;28;20126;-68
2022/10/14 01:54:50;;;;;;;6.40;5.13;;;;;;;;;;4974409;28;20417;-68
2022/10/14 01:57:22;;;;;;;12.93;6.35;;;;;;;;;;4973707;28;20031;-68
2022/10/14 01:59:51;;;;;;;7.97;6.00;;;;;;;;;;4972811;28;20131;-68
2022/10/14 02:02:23;;;;;;;9.63;6.82;;;;;;;;;;4962342;28;20067;-68
2022/10/14 02:04:49;;;;;;;7.75;5.80;;;;;;;;;;4953668;29;20043;-69
2022/10/14 02:07:26;;;;;;;10.82;6.13;;;;;;;;;;4953316;28;20059;-70
2022/10/14 02:10:02;;;;;;;9.50;6.25;;;;;;;;;;4954550;28;20046;-68
2022/10/14 02:13:10;;;;;;;8.25;6.10;;;;;;;;;;4953096;28;20039;-70
2022/10/14 02:15:57;;;;;;;8.50;5.40;;;;;;;;;;4948400;29;20050;-70
2022/10/14 02:18:26;;;;;;;9.68;6.53;;;;;;;;;;4953350;28;20398;-68
2022/10/14 02:20:55;;;;;;;9.85;6.35;;;;;;;;;;4954583;29;20039;-66
2022/10/14 02:23:31;;;;;;;11.07;6.47;;;;;;;;;;4953311;28;20035;-68
2022/10/14 02:25:59;;;;;;;9.13;6.32;;;;;;;;;;4956856;28;20041;-68
2022/10/14 02:28:28;;;;;;;7.85;5.80;;;;;;;;;;4972244;28;20501;-69
2022/10/14 02:31:00;;;;;;;9.02;5.72;;;;;;;;;;4973676;28;20038;-69
2022/10/14 02:33:32;;;;;;;8.65;5.90;;;;;;;;;;4954068;28;20031;-68
2022/10/14 02:36:02;;;;;;;7.53;5.30;;;;;;;;;;4954248;28;20039;-68
2022/10/14 02:38:29;;;;;;;8.07;5.18;;;;;;;;;;4953120;28;20027;-68
2022/10/14 02:40:55;;;;;;;7.75;5.30;;;;;;;;;;4955003;28;20498;-69
2022/10/14 02:43:22;;;;;;;8.38;5.70;;;;;;;;;;4972679;28;20032;-67
2022/10/14 02:45:48;;;;;;;8.10;4.97;;;;;;;;;;4973225;28;20027;-67
2022/10/14 02:48:14;;;;;;;5.93;4.20;;;;;;;;;;4955985;28;20035;-70
2022/10/14 02:50:40;;;;;;;6.10;3.72;;;;;;;;;;4968844;28;20078;-70
2022/10/14 02:53:07;;;;;;;7.18;3.55;;;;;;;;;;4964273;28;20122;-69
2022/10/14 02:55:33;;;;;;;6.43;3.92;;;;;;;;;;4953838;28;20031;-69
2022/10/14 02:57:59;;;;;;;5.10;3.88;;;;;;;;;;4957787;28;20118;-68
2022/10/14 03:00:25;;;;;;;5.10;3.70;;;;;;;;;;4953649;28;20102;-68
2022/10/14 03:02:53;;;;;;;7.93;3.78;;;;;;;;;;4952561;28;20449;-68
2022/10/14 03:05:19;;;;;;;5.97;3.30;;;;;;;;;;4954572;28;20050;-68
2022/10/14 03:07:45;;;;;;;4.53;2.75;;;;;;;;;;4966324;28;20118;-68
2022/10/14 03:10:13;;;;;;;8.02;2.83;;;;;;;;;;4972137;28;20117;-70
2022/10/14 03:12:39;;;;;;;4.90;2.83;;;;;;;;;;4955635;28;20154;-68
2022/10/14 03:15:12;;;;;;;4.95;2.72;;;;;;;;;;4952603;29;20040;-70
2022/10/14 03:17:38;;;;;;;4.85;2.85;;;;;;;;;;4952383;28;20056;-70
2022/10/14 03:20:06;;;;;;;4.32;2.97;;;;;;;;;;4952059;29;20441;-69
2022/10/14 03:22:36;;;;;;;5.47;2.63;;;;;;;;;;4961226;28;20035;-68
2022/10/14 03:25:04;;;;;;;6.72;2.85;;;;;;;;;;4952051;28;20130;-67
2022/10/14 03:27:40;;;;;;;4.75;3.17;;;;;;;;;;4966783;28;20114;-70
2022/10/14 03:30:10;;;;;;;7.32;3.35;;;;;;;;;;4958839;28;20043;-70
2022/10/14 03:32:44;;;;;;;5.30;3.17;;;;;;;;;;4961133;28;20042;-69
2022/10/14 03:35:29;;;;;;;5.22;3.50;;;;;;;;;;4953503;29;20054;-69
2022/10/14 03:37:58;;;;;;;7.57;3.85;;;;;;;;;;4951945;28;20045;-69
2022/10/14 03:40:29;;;;;;;6.32;4.13;;;;;;;;;;4951710;29;20032;-69
2022/10/14 03:43:02;;;;;;;8.07;4.07;;;;;;;;;;4969600;28;20482;-68
2022/10/14 03:45:36;;;;;;;6.82;4.00;;;;;;;;;;4971249;28;20030;-68
2022/10/14 03:48:03;;;;;;;8.73;4.65;;;;;;;;;;4959779;28;20097;-68
2022/10/14 03:50:29;;;;;;;8.82;4.72;;;;;;;;;;4951466;29;20027;-68
2022/10/14 03:52:56;;;;;;;7.50;4.32;;;;;;;;;;4951892;28;20085;-68
2022/10/14 03:55:29;;;;;;;5.32;4.05;;;;;;;;;;4951711;29;20051;-68
2022/10/14 03:57:56;;;;;;;8.63;4.80;;;;;;;;;;4951774;28;20078;-70
2022/10/14 04:00:22;;;;;;;10.60;5.20;;;;;;;;;;4986720;28;20129;-69
2022/10/14 04:02:58;;;;;;;11.82;6.50;;;;;;;;;;4958798;28;20035;-70
2022/10/14 04:05:39;;;;;;;8.60;5.70;;;;;;;;;;4963108;28;20070;-68
2022/10/14 04:08:13;;;;;;;8.68;6.10;;;;;;;;;;4990804;28;20039;-68
2022/10/14 04:10:44;;;;;;;7.28;5.60;;;;;;;;;;4991142;28;20035;-69
2022/10/14 04:13:13;;;;;;;8.30;5.32;;;;;;;;;;4974921;28;20034;-71
2022/10/14 04:15:39;;;;;;;13.02;6.45;;;;;;;;;;4961765;28;20501;-69
2022/10/14 04:18:19;;;;;;;8.10;5.63;;;;;;;;;;4969068;28;20049;-67
2022/10/14 04:20:47;;;;;;;8.70;5.32;;;;;;;;;;4964209;28;20129;-67
2022/10/14 04:23:14;;;;;;;12.10;6.20;;;;;;;;;;4971480;28;20035;-69
2022/10/14 04:25:43;;;;;;;10.13;5.75;;;;;;;;;;4960000;28;20027;-69
2022/10/14 04:28:10;;;;;;;8.75;5.63;;;;;;;;;;4955542;28;20219;-69
2022/10/14 04:30:45;;;;;;;8.95;5.30;;;;;;;;;;4955850;29;20114;-71
2022/10/14 04:33:17;;;;;;;8.25;5.47;;;;;;;;;;4955821;28;20047;-71
2022/10/14 04:35:42;;;;;;;9.98;5.63;;;;;;;;;;4956638;28;20027;-68
2022/10/14 04:38:19;;;;;;;10.38;5.93;;;;;;;;;;4954693;28;20239;-68
2022/10/14 04:40:52;;;;;;;7.40;5.35;;;;;;;;;;4971034;28;20125;-72
2022/10/14 04:43:19;;;;;;;9.02;5.32;;;;;;;;;;4974834;28;20121;-73
2022/10/14 04:45:45;;;;;;;8.10;5.30;;;;;;;;;;4974727;28;20038;-72
2022/10/14 04:48:16;;;;;;;7.22;4.80;;;;;;;;;;4973891;28;20062;-70
2022/10/14 04:50:43;;;;;;;7.53;5.22;;;;;;;;;;4972558;28;20035;-69
2022/10/14 04:53:34;;;;;;;7.20;5.20;;;;;;;;;;4977021;28;20070;-74
2022/10/14 04:56:08;;;;;;;7.32;5.13;;;;;;;;;;4990949;28;20046;-75
2022/10/14 04:58:40;;;;;;;9.38;5.35;;;;;;;;;;4974157;28;20030;-70
2022/10/14 05:01:07;;;;;;;11.20;6.43;;;;;;;;;;4972737;28;20497;-70
2022/10/14 05:03:36;;;;;;;11.20;6.07;;;;;;;;;;4960288;28;20137;-69
2022/10/14 05:06:03;;;;;;;8.68;5.45;;;;;;;;;;4956041;28;20035;-73
2022/10/14 05:08:29;;;;;;;9.60;5.65;;;;;;;;;;4954574;28;20039;-74
2022/10/14 05:10:57;;;;;;;13.15;7.93;;;;;;;;;;4954317;28;20031;-74
2022/10/14 05:13:44;;;;;;;13.50;7.90;;;;;;;;;;4955814;28;20047;-70
2022/10/14 05:16:09;;;;;;;13.40;8.18;;;;;;;;;;4954153;28;20130;-70
2022/10/14 05:18:37;;;;;;;11.25;7.90;;;;;;;;;;4961175;28;20460;-74
2022/10/14 05:21:08;;;;;;;16.52;9.55;;;;;;;;;;4973460;28;20042;-74
2022/10/14 05:23:48;;;;;;;23.52;12.48;;;;;;;;;;4974801;28;20476;-69
2022/10/14 05:26:14;;;;;;;16.50;10.70;;;;;;;;;;4973840;28;20030;-70
2022/10/14 05:28:41;;;;;;;14.25;10.25;;;;;;;;;;4972500;28;20031;-69
2022/10/14 05:31:07;;;;;;;19.52;13.38;;;;;;;;;;4973434;28;20039;-70
2022/10/14 05:33:41;;;;;;;20.33;12.68;;;;;;;;;;4973119;28;20042;-69
2022/10/14 05:36:08;;;;;;;19.70;12.50;;;;;;;;;;4974090;28;20548;-69
2022/10/14 05:38:35;;;;;;;20.95;13.73;;;;;;;;;;4973448;28;20370;-70
2022/10/14 05:41:02;;;;;;;16.98;12.10;;;;;;;;;;4965574;28;20343;-68
2022/10/14 05:43:28;;;;;;;17.35;12.38;;;;;;;;;;4955038;28;20126;-69
2022/10/14 05:45:54;;;;;;;17.65;12.20;;;;;;;;;;4954145;28;20053;-70
2022/10/14 05:48:23;;;;;;;21.83;12.82;;;;;;;;;;4953934;28;20046;-71
2022/10/14 05:50:49;;;;;;;15.02;10.93;;;;;;;;;;4954246;29;20480;-70
2022/10/14 05:53:18;;;;;;;17.23;11.80;;;;;;;;;;4957958;28;20061;-70
2022/10/14 05:55:47;;;;;;;18.70;11.98;;;;;;;;;;4972754;28;20121;-72
2022/10/14 05:58:13;;;;;;;19.33;11.05;;;;;;;;;;4973282;28;20171;-70
2022/10/14 06:00:42;;;;;;;15.82;9.80;;;;;;;;;;4973341;28;20335;-72
2022/10/14 06:03:13;;;;;;;18.33;10.18;;;;;;;;;;4972852;28;20047;-73
2022/10/14 06:05:39;;;;;;;18.17;10.50;;;;;;;;;;4972248;28;20097;-70
2022/10/14 06:08:07;;;;;;;14.75;9.93;;;;;;;;;;4972425;28;20069;-73
2022/10/14 06:10:35;;;;;;;12.45;8.35;;;;;;;;;;4972632;28;20027;-70
2022/10/14 06:13:02;;;;;;;14.48;8.40;;;;;;;;;;4972707;28;20039;-73
2022/10/14 06:15:28;;;;;;;15.85;8.35;;;;;;;;;;4972862;28;20121;-71
2022/10/14 06:17:54;;;;;;;19.98;12.18;;;;;;;;;;4973976;28;20477;-72
2022/10/14 06:20:22;;;;;;;16.50;9.43;;;;;;;;;;4972223;28;20073;-71
2022/10/14 06:22:48;;;;;;;10.38;6.65;;;;;;;;;;4973628;28;20431;-76
2022/10/14 06:25:14;;;;;;;8.55;6.15;;;;;;;;;;4973948;28;20073;-75
2022/10/14 06:27:39;;;;;;;11.30;7.90;;;;;;;;;;4973727;28;20031;-76
2022/10/14 06:30:06;;;;;;;13.38;6.45;;;;;;;;;;4973934;28;20605;-72
2022/10/14 06:32:32;;;;;;;9.85;5.65;;;;;;;;;;4973106;28;20031;-74
2022/10/14 06:34:57;;;;;;;9.48;5.70;;;;;;;;;;4971403;28;20086;-73
2022/10/14 06:37:23;;;;;;;10.65;5.90;;;;;;;;;;4954386;28;20046;-71
2022/10/14 06:39:49;;;;;;;11.18;7.30;;;;;;;;;;4953042;28;20050;-69
2022/10/14 06:42:15;;;;;;;9.98;6.35;;;;;;;;;;4954039;28;20519;-72
2022/10/14 06:44:41;;;;;;;8.73;6.35;;;;;;;;;;4962955;28;20070;-71
2022/10/14 06:47:07;;;;;;;8.80;5.82;;;;;;;;;;4973596;28;20482;-70
2022/10/14 06:49:33;;;;;;;10.88;6.70;;;;;;;;;;4971724;28;20046;-73
2022/10/14 06:51:59;;;;;;;8.50;6.30;;;;;;;;;;4973240;28;20030;-71
2022/10/14 06:54:24;;;;;;;11.80;6.90;;;;;;;;;;4973248;28;20071;-71
2022/10/14 06:56:50;;;;;;;8.45;5.90;;;;;;;;;;4968375;28;20094;-70
2022/10/14 06:59:16;;;;;;;13.07;6.75;;;;;;;;;;4953909;28;20042;-74
2022/10/14 07:01:42;;;;;;;7.53;4.90;;;;;;;;;;4953766;28;20550;-71
2022/10/14 07:04:08;;;;;;;9.07;5.43;;;;;;;;;;4954212;28;20063;-73
2022/10/14 07:06:36;;;;;;;10.95;6.18;;;;;;;;;;4965746;28;20054;-75
2022/10/14 07:09:03;;;;;;;9.07;6.07;;;;;;;;;;4971971;28;20521;-67
2022/10/14 07:11:29;;;;;;;7.25;4.30;;;;;;;;;;4972320;28;20034;-70
2022/10/14 07:13:56;;;;;;;13.25;5.63;;;;;;;;;;4973474;28;20050;-73
2022/10/14 07:16:22;;;;;;;7.60;4.15;;;;;;;;;;4971880;28;20031;-71
2022/10/14 07:18:48;;;;;;;13.07;6.18;;;;;;;;;;4973154;28;20050;-73
2022/10/14 07:21:14;;;;;;;9.38;5.60;;;;;;;;;;4973039;28;20026;-72
2022/10/14 07:23:40;;;;;;;6.65;4.63;;;;;;;;;;4973193;28;20105;-72
2022/10/14 07:26:06;;;;;;;10.23;5.07;;;;;;;;;;4973269;28;20065;-77
2022/10/14 07:28:33;;;;;;;9.85;4.90;;;;;;;;;;4972715;28;20438;-68
2022/10/14 07:31:07;;;;;;;8.15;4.30;;;;;;;;;;4972978;28;20039;-72
2022/10/14 07:33:35;;;;;;;8.25;5.15;;;;;;;;;;4972778;28;20181;-72
2022/10/14 07:36:03;;;;;;;8.70;5.10;;;;;;;;;;4973099;28;20089;-74
2022/10/14 07:38:29;;;;;;;10.07;5.05;;;;;;;;;;4973037;28;20037;-70
2022/10/14 07:40:57;;;;;;;6.85;5.43;;;;;;;;;;4972828;28;20035;-74
2022/10/14 07:43:23;;;;;;;9.10;4.93;;;;;;;;;;4972974;28;20037;-78
2022/10/14 07:45:50;;;;;;;7.95;4.55;;;;;;;;;;4971466;28;20341;-73
2022/10/14 07:48:16;;;;;;;8.18;4.97;;;;;;;;;;4972771;28;20441;-72
2022/10/14 07:50:41;;;;;;;7.97;5.40;;;;;;;;;;4973751;28;20114;-74
2022/10/14 07:53:07;;;;;;;9.40;6.53;;;;;;;;;;4976932;28;20165;-72
2022/10/14 07:55:33;;;;;;;10.25;6.50;;;;;;;;;;4977225;28;20031;-75
2022/10/14 07:57:59;;;;;;;8.85;6.30;;;;;;;;;;4976553;28;20085;-70
2022/10/14 08:00:25;;;;;;;14.82;8.52;;;;;;;;;;4976758;28;20501;-69
2022/10/14 08:02:52;;;;;;;7.05;4.35;;;;;;;;;;4976923;28;20031;-73
2022/10/14 08:05:18;;;;;;;6.65;4.22;;;;;;;;;;4976689;28;20034;-72
2022/10/14 08:07:44;;;;;;;12.55;5.68;;;;;;;;;;4976516;28;20031;-71
2022/10/14 08:10:10;;;;;;;8.10;5.25;;;;;;;;;;4976286;28;20065;-71
2022/10/14 08:12:36;;;;;;;12.13;8.27;;;;;;;;;;4976289;28;20035;-75
2022/10/14 08:15:01;;;;;;;13.73;7.85;;;;;;;;;;4976408;28;20480;-70
2022/10/14 08:17:27;;;;;;;12.93;8.00;;;;;;;;;;4972863;28;20073;-69
2022/10/14 08:19:53;;;;;;;10.43;7.30;;;;;;;;;;4975034;28;20043;-69
2022/10/14 08:22:19;;;;;;;9.05;5.75;;;;;;;;;;4974993;28;20054;-71
2022/10/14 08:24:45;;;;;;;9.75;5.82;;;;;;;;;;4975439;28;20464;-69
2022/10/14 08:27:11;;;;;;;8.02;5.20;;;;;;;;;;4975312;28;20169;-70
2022/10/14 08:29:37;;;;;;;9.85;6.20;;;;;;;;;;4975271;28;20338;-70
2022/10/14 08:32:03;;;;;;;7.15;5.20;;;;;;;;;;4973774;28;20478;-74
2022/10/14 08:34:30;;;;;;;11.25;5.80;;;;;;;;;;4975210;28;20372;-72
2022/10/14 08:36:56;;;;;;;7.25;4.97;;;;;;;;;;4972344;28;20042;-70
2022/10/14 08:39:22;;;;;;;8.23;4.88;;;;;;;;;;4968005;28;20026;-73
2022/10/14 08:42:16;;;;;;;7.63;4.65;;;;;;;;;;4974998;28;20045;-73
2022/10/14 08:44:56;;;;;;;8.70;5.13;;;;;;;;;;4974749;28;20031;-70
2022/10/14 08:47:42;;;;;;;7.15;5.13;;;;;;;;;;4967813;28;20034;-69
2022/10/14 08:50:16;;;;;;;7.22;4.78;;;;;;;;;;4974746;28;20039;-70
2022/10/14 08:53:17;;;;;;;8.38;4.40;;;;;;;;;;4975001;28;20027;-69
2022/10/14 08:55:50;;;;;;;6.43;4.40;;;;;;;;;;4972704;28;20073;-71
2022/10/14 08:58:37;;;;;;;6.13;4.20;;;;;;;;;;4972535;28;20358;-72
2022/10/14 09:01:18;;;;;;;6.60;3.78;;;;;;;;;;4973998;28;20071;-72
2022/10/14 09:03:44;;;;;;;8.65;5.97;;;;;;;;;;4974018;28;20089;-70
2022/10/14 09:06:28;;;;;;;7.70;4.47;;;;;;;;;;4974490;28;21007;-69
2022/10/14 09:09:02;;;;;;;6.72;5.18;;;;;;;;;;4972547;28;20046;-73
2022/10/14 09:11:36;;;;;;;10.30;4.75;;;;;;;;;;4974934;28;20035;-71
2022/10/14 09:14:04;;;;;;;6.10;4.00;;;;;;;;;;4974543;28;20066;-76
2022/10/14 09:16:35;;;;;;;7.05;4.28;;;;;;;;;;4974391;28;20460;-71
2022/10/14 09:19:03;;;;;;;9.98;4.55;;;;;;;;;;4974142;28;20031;-71
2022/10/14 09:21:45;;;;;;;5.78;3.83;;;;;;;;;;4974295;28;20042;-72
2022/10/14 09:24:21;;;;;;;6.75;3.15;;;;;;;;;;4971546;28;20075;-68
2022/10/14 09:26:53;;;;;;;5.25;3.20;;;;;;;;;;4963809;28;20034;-71
2022/10/14 09:29:22;;;;;;;5.25;2.85;;;;;;;;;;4972908;28;20027;-73
2022/10/14 09:31:49;;;;;;;6.47;2.92;;;;;;;;;;4973998;28;20045;-73
2022/10/14 09:34:19;;;;;;;4.57;3.20;;;;;;;;;;4974042;28;20201;-69
2022/10/14 09:36:48;;;;;;;5.72;3.05;;;;;;;;;;4973394;28;20035;-72
2022/10/14 09:39:14;;;;;;;6.68;3.88;;;;;;;;;;4973431;28;20097;-69
2022/10/14 09:41:42;;;;;;;4.72;3.42;;;;;;;;;;4973604;28;20397;-72
2022/10/14 09:44:18;;;;;;;7.47;2.95;;;;;;;;;;4971992;28;20035;-72
2022/10/14 09:46:51;;;;;;;5.78;2.72;;;;;;;;;;4972031;28;20035;-71
2022/10/14 09:49:33;;;;;;;4.40;2.90;;;;;;;;;;4968374;28;20066;-71
2022/10/14 09:52:01;;;;;;;6.15;3.47;;;;;;;;;;4970758;28;20114;-70
2022/10/14 09:54:29;;;;;;;3.80;2.83;;;;;;;;;;4972070;28;20019;-73
2022/10/14 09:57:07;;;;;;;6.10;3.22;;;;;;;;;;4971371;28;20789;-70
2022/10/14 09:59:55;;;;;;;6.18;3.50;;;;;;;;;;4973726;28;20034;-70
2022/10/14 10:02:45;;;;;;;5.00;3.38;;;;;;;;;;4973727;28;20034;-73
2022/10/14 10:05:21;;;;;;;8.52;3.80;;;;;;;;;;4973019;28;20086;-69
2022/10/14 10:08:04;;;;;;;14.55;5.55;;;;;;;;;;4972469;28;20069;-73
2022/10/14 10:10:33;;;;;;;8.00;4.25;;;;;;;;;;4972471;28;20085;-76
2022/10/14 10:13:00;;;;;;;7.63;3.00;;;;;;;;;;4972171;28;20679;-68
2022/10/14 10:15:26;;;;;;;8.57;3.92;;;;;;;;;;4970457;28;20529;-71
2022/10/14 10:17:53;;;;;;;5.65;3.30;;;;;;;;;;4972874;28;20097;-73
2022/10/14 10:20:27;;;;;;;6.85;3.38;;;;;;;;;;4971483;28;20395;-71
2022/10/14 10:22:55;;;;;;;5.05;2.50;;;;;;;;;;4971298;28;20666;-72
2022/10/14 10:25:26;;;;;;;4.03;2.63;;;;;;;;;;4973189;28;20062;-69
2022/10/14 10:27:55;;;;;;;6.40;3.28;;;;;;;;;;4972722;28;20039;-72
2022/10/14 10:30:26;;;;;;;4.93;2.92;;;;;;;;;;4973049;28;20030;-71
2022/10/14 10:33:16;;;;;;;6.63;3.08;;;;;;;;;;4971483;28;20110;-74
2022/10/14 10:36:05;;;;;;;8.07;3.35;;;;;;;;;;4973040;28;20085;-72
2022/10/14 10:38:37;;;;;;;5.57;2.83;;;;;;;;;;4967144;28;20098;-78
2022/10/14 10:41:18;;;;;;;7.65;3.28;;;;;;;;;;4971817;28;20104;-71
2022/10/14 10:43:56;;;;;;;6.15;3.17;;;;;;;;;;4972667;28;20103;-70
2022/10/14 10:46:36;;;;;;;6.78;3.50;;;;;;;;;;4971231;28;20085;-69
2022/10/14 10:49:18;;;;;;;12.05;4.38;;;;;;;;;;4972763;28;20038;-74
2022/10/14 10:51:52;;;;;;;9.88;3.88;;;;;;;;;;4972979;28;20038;-72
2022/10/14 10:54:38;;;;;;;7.53;3.47;;;;;;;;;;4965949;28;20355;-70
2022/10/14 10:58:03;;;;;;;6.10;3.30;;;;;;;;;;4971090;28;20035;-74
2022/10/14 11:00:36;;;;;;;7.55;4.10;;;;;;;;;;4939817;29;20051;-72
2022/10/14 11:03:14;;;;;;;8.60;4.10;;;;;;;;;;4971463;28;20046;-69
2022/10/14 11:05:50;;;;;;;13.93;4.75;;;;;;;;;;4971788;28;20039;-69
2022/10/14 11:14:51;;;;;;;11.07;4.90;;;;;;;;;;4966985;28;20084;-70
2022/10/14 11:17:34;;;;;;;7.72;4.00;;;;;;;;;;4968711;28;20043;-72
2022/10/14 11:20:26;;;;;;;8.40;3.78;;;;;;;;;;4971899;28;20035;-69
2022/10/14 11:23:05;;;;;;;5.93;2.55;;;;;;;;;;4972135;28;20041;-71
2022/10/14 11:25:48;;;;;;;6.75;3.20;;;;;;;;;;4970711;28;20385;-70
2022/10/14 11:28:28;;;;;;;8.50;3.58;;;;;;;;;;4971267;28;20031;-70
2022/10/14 11:30:57;;;;;;;7.15;3.42;;;;;;;;;;4970978;28;20458;-71
2022/10/14 11:33:25;;;;;;;4.68;2.45;;;;;;;;;;4972309;28;20026;-71
2022/10/14 11:35:54;;;;;;;9.10;3.53;;;;;;;;;;4971105;28;20043;-73
2022/10/14 11:38:26;;;;;;;7.82;3.10;;;;;;;;;;4965679;28;20058;-73
2022/10/14 11:40:51;;;;;;;6.47;3.30;;;;;;;;;;4970863;28;20086;-70
2022/10/14 11:43:40;;;;;;;6.40;2.63;;;;;;;;;;4972575;28;20046;-70
2022/10/14 11:46:17;;;;;;;8.60;3.95;;;;;;;;;;4951291;28;20043;-73
2022/10/14 11:48:50;;;;;;;8.05;3.15;;;;;;;;;;4951880;28;20071;-72
2022/10/14 11:51:34;;;;;;;3.87;2.03;;;;;;;;;;4951075;29;20035;-71
2022/10/14 11:54:10;;;;;;;6.30;2.88;;;;;;;;;;4952470;28;20290;-71
2022/10/14 11:56:44;;;;;;;3.70;2.03;;;;;;;;;;4952542;28;20098;-74
2022/10/14 11:59:39;;;;;;;4.13;2.30;;;;;;;;;;4953025;28;20039;-72
2022/10/14 12:02:25;;;;;;;5.82;2.80;;;;;;;;;;4951449;28;20051;-72
2022/10/14 12:05:06;;;;;;;6.55;3.50;;;;;;;;;;4952694;28;20074;-73
2022/10/14 12:07:48;;;;;;;6.13;2.92;;;;;;;;;;4947862;28;20429;-70
2022/10/14 12:10:36;;;;;;;4.55;2.40;;;;;;;;;;4952043;29;20067;-71
2022/10/14 12:13:12;;;;;;;4.55;2.80;;;;;;;;;;4952459;28;20490;-72
2022/10/14 12:15:43;;;;;;;4.95;2.85;;;;;;;;;;4951013;29;20034;-70
2022/10/14 12:18:10;;;;;;;5.53;2.97;;;;;;;;;;4952110;28;20036;-70
2022/10/14 12:20:52;;;;;;;4.75;3.10;;;;;;;;;;4952179;28;20034;-68
2022/10/14 12:23:24;;;;;;;6.45;3.50;;;;;;;;;;4942804;28;20035;-70
2022/10/14 12:26:09;;;;;;;5.28;2.80;;;;;;;;;;4948934;28;20121;-70
2022/10/14 12:28:36;;;;;;;4.55;2.65;;;;;;;;;;4944088;29;20102;-71
2022/10/14 12:31:31;;;;;;;4.47;2.38;;;;;;;;;;4951214;29;20070;-71
2022/10/14 12:34:17;;;;;;;4.72;2.50;;;;;;;;;;4952111;28;20047;-72
2022/10/14 12:36:46;;;;;;;2.92;1.98;;;;;;;;;;4952517;28;20186;-68
2022/10/14 12:39:17;;;;;;;4.70;2.30;;;;;;;;;;4954321;29;20097;-75
2022/10/14 12:42:00;;;;;;;3.97;1.98;;;;;;;;;;4951094;29;20110;-70
2022/10/14 12:44:29;;;;;;;5.78;2.55;;;;;;;;;;4954286;28;20031;-72
2022/10/14 12:46:57;;;;;;;6.03;2.88;;;;;;;;;;4955319;28;20149;-73
2022/10/14 12:49:27;;;;;;;2.85;2.00;;;;;;;;;;4955699;29;20035;-71
2022/10/14 12:52:08;;;;;;;5.85;2.90;;;;;;;;;;4955735;28;20382;-70
2022/10/14 12:54:36;;;;;;;7.32;2.88;;;;;;;;;;4953093;29;20069;-69
2022/10/14 12:57:14;;;;;;;6.97;3.10;;;;;;;;;;4955157;28;20036;-72
2022/10/14 12:59:40;;;;;;;7.38;2.80;;;;;;;;;;4955480;28;20039;-71
2022/10/14 13:02:31;;;;;;;6.70;3.60;;;;;;;;;;4955486;28;20129;-71
2022/10/14 13:05:01;;;;;;;13.05;8.68;;;;;;;;;;4955125;29;20031;-72
2022/10/14 13:07:31;;;;;;;9.27;6.20;;;;;;;;;;4954568;28;20486;-71
2022/10/14 13:10:38;;;;;;;6.28;3.90;;;;;;;;;;4955312;29;20497;-70
2022/10/14 13:13:46;;;;;;;7.25;4.05;;;;;;;;;;4954785;28;20536;-72
2022/10/14 13:16:24;;;;;;;6.80;3.90;;;;;;;;;;4946010;29;20035;-75
2022/10/14 13:19:00;;;;;;;6.65;3.45;;;;;;;;;;4953275;29;20031;-75
2022/10/14 13:21:35;;;;;;;5.35;3.17;;;;;;;;;;4949167;29;20086;-72
2022/10/14 13:24:40;;;;;;;4.35;2.92;;;;;;;;;;4954098;28;20486;-70
2022/10/14 13:27:39;;;;;;;5.63;2.95;;;;;;;;;;4950572;28;20119;-72
2022/10/14 13:30:14;;;;;;;6.43;3.78;;;;;;;;;;4953654;28;20027;-75
2022/10/14 13:32:50;;;;;;;6.40;3.42;;;;;;;;;;4952607;29;20426;-74
2022/10/14 13:35:31;;;;;;;5.95;3.97;;;;;;;;;;4954869;29;20062;-73
2022/10/14 13:38:12;;;;;;;7.25;3.28;;;;;;;;;;4955184;28;20038;-70
2022/10/14 13:40:44;;;;;;;6.68;3.70;;;;;;;;;;4954896;28;20118;-71
2022/10/14 13:43:20;;;;;;;5.30;3.50;;;;;;;;;;4954234;29;20059;-70
2022/10/14 13:45:51;;;;;;;9.48;4.32;;;;;;;;;;4954709;28;20065;-70
2022/10/14 13:48:33;;;;;;;7.15;3.70;;;;;;;;;;4952661;28;20082;-70
2022/10/14 13:51:24;;;;;;;5.50;3.63;;;;;;;;;;4954725;29;20110;-69
2022/10/14 13:53:53;;;;;;;6.00;3.50;;;;;;;;;;4954529;28;20510;-75
2022/10/14 13:56:27;;;;;;;6.05;3.25;;;;;;;;;;4946088;29;20055;-72
2022/10/14 13:58:55;;;;;;;4.93;3.30;;;;;;;;;;4945642;29;20066;-73
2022/10/14 14:01:40;;;;;;;7.32;3.72;;;;;;;;;;4952094;28;20071;-71
2022/10/14 14:04:10;;;;;;;6.28;3.03;;;;;;;;;;4951662;28;20031;-68
2022/10/14 14:06:43;;;;;;;5.70;3.50;;;;;;;;;;4949947;29;20366;-71
2022/10/14 14:09:19;;;;;;;5.05;2.92;;;;;;;;;;4954796;28;20043;-70
2022/10/14 14:11:46;;;;;;;5.88;3.00;;;;;;;;;;4961860;28;20039;-71
2022/10/14 14:14:22;;;;;;;5.30;3.58;;;;;;;;;;4954444;28;20031;-72
2022/10/14 14:16:55;;;;;;;4.32;2.60;;;;;;;;;;4953839;28;20094;-74
2022/10/14 14:19:26;;;;;;;5.32;3.30;;;;;;;;;;4946970;28;20182;-72
2022/10/14 14:22:18;;;;;;;7.85;3.03;;;;;;;;;;4952247;29;20090;-74
2022/10/14 14:24:46;;;;;;;3.30;1.90;;;;;;;;;;4954135;28;20039;-71
2022/10/14 14:27:16;;;;;;;4.78;2.28;;;;;;;;;;4947173;29;20039;-70
2022/10/14 14:29:44;;;;;;;4.25;2.20;;;;;;;;;;4954190;28;20035;-71
2022/10/14 14:32:15;;;;;;;4.13;2.25;;;;;;;;;;4953209;29;20481;-72
2022/10/14 14:34:44;;;;;;;4.57;2.15;;;;;;;;;;4943718;29;20435;-73
2022/10/14 14:37:25;;;;;;;6.15;2.25;;;;;;;;;;4953957;28;20033;-73
2022/10/14 14:39:57;;;;;;;4.03;2.38;;;;;;;;;;4952807;29;20472;-75
2022/10/14 14:42:25;;;;;;;5.07;2.70;;;;;;;;;;4949871;28;20044;-71
2022/10/14 14:44:56;;;;;;;4.05;3.20;;;;;;;;;;4951141;29;20067;-70
2022/10/14 14:47:23;;;;;;;3.88;2.72;;;;;;;;;;4953313;28;20031;-70
2022/10/14 14:49:51;;;;;;;6.57;3.13;;;;;;;;;;4968324;28;20027;-72
2022/10/14 14:52:17;;;;;;;7.15;3.00;;;;;;;;;;4947151;29;20035;-72
2022/10/14 14:54:45;;;;;;;5.05;3.30;;;;;;;;;;4953816;29;20123;-72
2022/10/14 14:57:15;;;;;;;3.92;2.70;;;;;;;;;;4952994;29;20042;-73
2022/10/14 14:59:47;;;;;;;6.75;2.88;;;;;;;;;;4946538;28;20043;-73
2022/10/14 15:02:19;;;;;;;4.68;2.90;;;;;;;;;;4946775;28;20043;-71
2022/10/14 15:05:01;;;;;;;5.70;3.35;;;;;;;;;;4953494;28;20047;-71
2022/10/14 15:07:28;;;;;;;5.90;2.67;;;;;;;;;;4946375;28;20042;-76
2022/10/14 15:09:57;;;;;;;4.07;2.40;;;;;;;;;;4950905;28;20023;-72
2022/10/14 15:12:33;;;;;;;4.97;2.72;;;;;;;;;;4953594;28;20035;-71
2022/10/14 15:15:00;;;;;;;6.55;2.15;;;;;;;;;;4952932;28;20434;-72
2022/10/14 15:17:34;;;;;;;2.33;1.67;;;;;;;;;;4951924;28;20087;-71